Time;durP1;ratioP1;P1;durP2;ratioP2;P2;SDS_P1;SDS_P2;PMS_P1;PMS_P2;Temp;Humidity;BMP_temperature;BMP_pressure;BME280_temperature;BME280_humidity;BME280_pressure;Samples;Min_cycle;Max_cycle;Signal;HPM_P1;HPM_P2
2023/09/09 00:02:03;;;;;;;3.67;3.17;;;15.60;99.90;15.50;100877.00;;;;4988837;27;117817;-68
2023/09/09 00:04:28;;;;;;;4.03;3.50;;;15.50;99.90;15.50;100864.00;;;;4987928;27;87960;-67
2023/09/09 00:06:56;;;;;;;7.18;2.80;;;15.40;99.90;15.40;100871.00;;;;4990611;27;110138;-66
2023/09/09 00:09:21;;;;;;;2.83;2.42;;;15.40;99.90;15.40;100866.00;;;;4989104;27;89505;-66
2023/09/09 00:11:47;;;;;;;3.63;2.95;;;15.40;99.90;15.40;100860.00;;;;4988173;28;117885;-67
2023/09/09 00:14:15;;;;;;;2.85;2.60;;;15.30;99.90;15.30;100869.00;;;;4989852;28;117835;-66
2023/09/09 00:16:41;;;;;;;4.55;3.03;;;15.30;99.90;15.30;100866.00;;;;4990278;27;109725;-65
2023/09/09 00:19:07;;;;;;;4.50;3.50;;;15.30;99.90;15.20;100878.00;;;;4987912;27;109647;-66
2023/09/09 00:21:33;;;;;;;5.18;3.67;;;15.20;99.90;15.10;100866.00;;;;4988301;27;116091;-66
2023/09/09 00:23:59;;;;;;;4.43;2.78;;;15.10;99.90;15.10;100868.00;;;;4987012;27;88302;-66
2023/09/09 00:26:27;;;;;;;4.15;3.72;;;15.10;99.90;15.10;100871.00;;;;4987567;27;109564;-66
2023/09/09 00:28:53;;;;;;;3.20;2.92;;;15.10;99.90;15.00;100875.00;;;;4988586;27;87143;-66
2023/09/09 00:31:18;;;;;;;3.90;3.40;;;15.00;99.90;15.00;100864.00;;;;4987272;27;118216;-66
2023/09/09 00:33:44;;;;;;;4.18;3.45;;;14.90;99.90;15.00;100867.00;;;;4994561;27;116275;-66
2023/09/09 00:36:11;;;;;;;4.20;3.45;;;15.00;99.90;15.00;100862.00;;;;4995463;27;108461;-66
2023/09/09 00:38:37;;;;;;;6.10;2.83;;;14.90;99.90;14.90;100854.00;;;;4995198;27;87890;-66
2023/09/09 00:41:15;;;;;;;3.50;2.78;;;14.90;99.90;14.90;100853.00;;;;4996495;27;116176;-65
2023/09/09 00:43:41;;;;;;;4.03;2.92;;;14.90;99.90;14.80;100856.00;;;;4994935;27;90611;-65
2023/09/09 00:46:08;;;;;;;6.15;3.42;;;14.80;99.90;14.80;100861.00;;;;4991046;27;110665;-65
2023/09/09 00:48:36;;;;;;;4.07;3.70;;;14.80;99.90;14.80;100856.00;;;;4971699;28;88326;-66
2023/09/09 00:51:02;;;;;;;6.85;3.03;;;14.80;99.90;14.70;100861.00;;;;4985915;27;89610;-67
2023/09/09 00:53:27;;;;;;;7.65;2.78;;;14.70;99.90;14.70;100858.00;;;;4974296;28;87254;-65
2023/09/09 00:55:54;;;;;;;4.28;3.20;;;14.60;99.90;14.60;100866.00;;;;4996149;27;110298;-66
2023/09/09 00:58:22;;;;;;;3.53;2.90;;;14.60;99.90;14.60;100861.00;;;;4995545;27;107930;-66
2023/09/09 01:00:48;;;;;;;3.47;2.92;;;14.50;99.90;14.50;100859.00;;;;4991172;27;88945;-65
2023/09/09 01:03:16;;;;;;;3.57;2.93;;;14.50;99.90;14.50;100853.00;;;;4992098;27;119386;-66
2023/09/09 01:05:42;;;;;;;3.75;3.20;;;14.50;99.90;14.50;100858.00;;;;4971104;28;109423;-65
2023/09/09 01:08:08;;;;;;;3.13;2.83;;;14.40;99.90;14.40;100861.00;;;;4988757;27;108133;-67
2023/09/09 01:10:34;;;;;;;4.70;3.20;;;14.40;99.90;14.40;100862.00;;;;4991952;28;88795;-66
2023/09/09 01:12:59;;;;;;;4.97;3.10;;;14.40;99.90;14.30;100859.00;;;;4989982;28;117187;-66
2023/09/09 01:15:26;;;;;;;5.75;3.67;;;14.30;99.90;14.30;100862.00;;;;4990365;27;110559;-68
2023/09/09 01:17:52;;;;;;;4.13;3.42;;;14.20;99.90;14.20;100856.00;;;;4974442;28;108249;-66
2023/09/09 01:20:20;;;;;;;5.05;3.92;;;14.20;99.90;14.20;100863.00;;;;4975570;28;116635;-67
2023/09/09 01:22:49;;;;;;;8.27;3.40;;;14.20;99.90;14.10;100859.00;;;;4973795;28;88725;-67
2023/09/09 01:25:16;;;;;;;5.33;3.63;;;14.30;99.90;14.10;100860.00;;;;4990945;27;88985;-66
2023/09/09 01:27:42;;;;;;;5.33;3.80;;;14.10;99.90;14.10;100862.00;;;;4990019;28;87863;-66
2023/09/09 01:30:11;;;;;;;3.33;3.00;;;14.00;99.90;14.00;100859.00;;;;4988313;27;118157;-67
2023/09/09 01:32:36;;;;;;;3.50;3.07;;;14.00;99.90;14.00;100856.00;;;;4990504;28;89178;-66
2023/09/09 01:35:05;;;;;;;4.90;3.77;;;14.00;99.90;14.00;100864.00;;;;4990393;27;111585;-66
2023/09/09 01:37:32;;;;;;;3.70;2.97;;;14.00;99.90;14.00;100859.00;;;;4991949;27;87894;-66
2023/09/09 01:39:57;;;;;;;4.00;3.37;;;13.90;99.90;13.90;100864.00;;;;4989229;27;88512;-66
2023/09/09 01:42:23;;;;;;;3.83;3.13;;;13.90;99.90;13.90;100868.00;;;;4990722;28;88756;-66
2023/09/09 01:44:48;;;;;;;6.67;3.43;;;13.90;99.90;13.90;100868.00;;;;4987987;27;110518;-66
2023/09/09 01:47:14;;;;;;;4.50;3.17;;;13.90;99.90;13.90;100866.00;;;;4989212;27;107837;-67
2023/09/09 01:49:41;;;;;;;6.40;3.97;;;13.90;99.90;13.90;100867.00;;;;4990288;27;89122;-66
2023/09/09 01:52:08;;;;;;;2.93;2.63;;;13.90;99.90;13.90;100866.00;;;;4989706;28;89833;-67
2023/09/09 01:54:34;;;;;;;3.67;3.00;;;13.90;99.90;13.80;100864.00;;;;4989011;28;103364;-66
2023/09/09 01:56:59;;;;;;;3.53;3.23;;;13.80;99.90;13.90;100863.00;;;;4989502;28;88268;-65
2023/09/09 01:59:25;;;;;;;5.37;3.40;;;13.80;99.90;13.80;100866.00;;;;4990936;27;116561;-67
2023/09/09 02:01:51;;;;;;;5.10;3.53;;;13.80;99.90;13.80;100863.00;;;;4969293;28;87976;-66
2023/09/09 02:04:17;;;;;;;4.73;3.63;;;13.80;99.90;13.70;100863.00;;;;4992298;27;87902;-65
2023/09/09 02:06:44;;;;;;;4.30;3.30;;;13.70;99.90;13.70;100868.00;;;;4994519;27;88315;-66
2023/09/09 02:09:10;;;;;;;3.70;3.00;;;13.70;99.90;13.70;100862.00;;;;4988890;27;89014;-68
2023/09/09 02:11:36;;;;;;;3.37;2.90;;;13.70;99.90;13.70;100862.00;;;;4989214;27;87887;-66
2023/09/09 02:14:01;;;;;;;5.40;3.27;;;13.70;99.90;13.60;100859.00;;;;4989023;27;111578;-66
2023/09/09 02:16:27;;;;;;;3.60;3.30;;;13.60;99.90;13.60;100854.00;;;;4992258;27;108524;-67
2023/09/09 02:18:53;;;;;;;5.33;2.93;;;13.60;99.90;13.60;100855.00;;;;4990674;27;116668;-66
2023/09/09 02:21:18;;;;;;;5.00;3.43;;;13.60;99.90;13.60;100857.00;;;;4991328;27;109397;-66
2023/09/09 02:23:44;;;;;;;4.70;3.93;;;13.60;99.90;13.60;100856.00;;;;4990610;27;109806;-67
2023/09/09 02:26:10;;;;;;;3.57;3.07;;;13.60;99.90;13.50;100856.00;;;;4993496;27;90041;-67
2023/09/09 02:28:36;;;;;;;3.40;3.10;;;13.50;99.90;13.50;100857.00;;;;4991275;27;88387;-68
2023/09/09 02:31:02;;;;;;;3.33;3.00;;;13.50;99.90;13.50;100851.00;;;;4990494;27;107730;-67
2023/09/09 02:33:27;;;;;;;2.97;2.67;;;13.50;99.90;13.50;100861.00;;;;4989911;27;101754;-66
2023/09/09 02:35:53;;;;;;;9.80;3.57;;;13.50;99.90;13.50;100863.00;;;;4990889;27;88332;-66
2023/09/09 02:38:19;;;;;;;3.63;3.33;;;13.50;99.90;13.40;100871.00;;;;4988479;27;118652;-67
2023/09/09 02:40:44;;;;;;;4.97;2.70;;;13.40;99.90;13.40;100869.00;;;;4992172;27;108209;-67
2023/09/09 02:43:11;;;;;;;4.23;3.13;;;13.40;99.90;13.40;100866.00;;;;4994141;27;99382;-67
2023/09/09 02:45:37;;;;;;;3.40;3.00;;;13.40;99.90;13.40;100869.00;;;;4996041;27;87668;-68
2023/09/09 02:48:04;;;;;;;4.17;3.30;;;13.40;99.90;13.40;100857.00;;;;4989860;27;91161;-66
2023/09/09 02:50:30;;;;;;;3.87;3.33;;;13.40;99.90;13.40;100862.00;;;;4991741;27;108973;-66
2023/09/09 02:52:55;;;;;;;5.00;3.23;;;13.40;99.90;13.40;100854.00;;;;4970802;27;112917;-66
2023/09/09 02:55:21;;;;;;;4.90;3.33;;;13.40;99.90;13.40;100853.00;;;;4988986;27;107149;-66
2023/09/09 02:57:50;;;;;;;4.57;3.07;;;13.40;99.90;13.40;100857.00;;;;4989139;27;117804;-66
2023/09/09 03:00:16;;;;;;;3.70;2.93;;;13.40;99.90;13.40;100862.00;;;;4990576;27;88332;-66
2023/09/09 03:02:42;;;;;;;3.33;2.50;;;13.40;99.90;13.40;100857.00;;;;4984438;27;112121;-66
2023/09/09 03:05:09;;;;;;;3.27;2.93;;;13.40;99.90;13.30;100861.00;;;;4987662;27;88258;-66
2023/09/09 03:07:34;;;;;;;4.10;2.90;;;13.40;99.90;13.30;100849.00;;;;4989509;27;105188;-67
2023/09/09 03:10:00;;;;;;;5.20;3.80;;;13.30;99.90;13.30;100863.00;;;;4949808;27;112370;-66
2023/09/09 03:12:27;;;;;;;3.83;3.40;;;13.30;99.90;13.30;100860.00;;;;4990657;27;88266;-66
2023/09/09 03:14:52;;;;;;;3.70;3.30;;;13.30;99.90;13.30;100851.00;;;;4993312;27;97611;-65
2023/09/09 03:17:18;;;;;;;4.50;3.60;;;13.20;99.90;13.20;100845.00;;;;4991199;27;117812;-68
2023/09/09 03:19:44;;;;;;;6.50;4.03;;;13.20;99.90;13.20;100855.00;;;;4972568;28;100917;-67
2023/09/09 03:22:10;;;;;;;4.57;3.13;;;13.20;99.90;13.20;100853.00;;;;4990682;27;107579;-66
2023/09/09 03:24:36;;;;;;;3.43;3.10;;;13.20;99.90;13.20;100850.00;;;;4987418;27;108906;-66
2023/09/09 03:27:01;;;;;;;5.40;3.37;;;13.20;99.90;13.20;100848.00;;;;4988269;27;116984;-66
2023/09/09 03:29:27;;;;;;;4.60;3.27;;;13.20;99.90;13.10;100844.00;;;;4987416;28;119946;-66
2023/09/09 03:31:53;;;;;;;4.43;3.10;;;13.10;99.90;13.10;100855.00;;;;4991542;27;110310;-67
2023/09/09 03:34:18;;;;;;;4.77;3.00;;;13.10;99.90;13.10;100850.00;;;;4989304;28;88883;-67
2023/09/09 03:36:44;;;;;;;4.30;3.47;;;13.10;99.90;13.10;100847.00;;;;4992474;28;97690;-66
2023/09/09 03:39:10;;;;;;;7.17;4.47;;;13.10;99.90;13.00;100855.00;;;;4991278;27;116699;-66
2023/09/09 03:41:38;;;;;;;6.53;3.77;;;13.10;99.90;13.00;100849.00;;;;4988327;27;96218;-66
2023/09/09 03:44:04;;;;;;;4.23;3.63;;;13.00;99.90;13.00;100848.00;;;;4978662;28;86980;-66
2023/09/09 03:46:30;;;;;;;8.83;4.10;;;13.00;99.90;13.00;100850.00;;;;4986887;27;116611;-67
2023/09/09 03:48:55;;;;;;;4.23;3.27;;;13.00;99.90;13.00;100844.00;;;;4989674;28;88737;-66
2023/09/09 03:51:21;;;;;;;5.23;3.33;;;13.00;99.90;13.00;100849.00;;;;4989020;27;110404;-68
2023/09/09 03:53:47;;;;;;;5.47;4.03;;;13.00;99.90;13.00;100847.00;;;;4989808;28;88495;-67
2023/09/09 03:56:13;;;;;;;6.03;2.97;;;13.00;99.90;12.90;100839.00;;;;4988665;28;115092;-66
2023/09/09 03:58:38;;;;;;;4.13;3.53;;;13.00;99.90;12.90;100846.00;;;;4987984;27;117954;-66
2023/09/09 04:01:06;;;;;;;6.63;3.67;;;12.90;99.90;12.90;100850.00;;;;4987220;27;110488;-66
2023/09/09 04:03:34;;;;;;;3.57;2.70;;;12.90;99.90;12.90;100849.00;;;;4991871;28;88109;-67
2023/09/09 04:06:04;;;;;;;4.33;3.10;;;12.90;99.90;12.80;100855.00;;;;4988292;27;89176;-67
2023/09/09 04:08:31;;;;;;;4.87;3.50;;;12.80;99.90;12.80;100851.00;;;;4967549;28;87879;-67
2023/09/09 04:10:56;;;;;;;3.33;2.80;;;12.80;99.90;12.80;100846.00;;;;4992598;28;87800;-67
2023/09/09 04:13:22;;;;;;;4.13;3.77;;;12.80;99.90;12.80;100855.00;;;;4990877;27;108769;-66
2023/09/09 04:15:47;;;;;;;4.20;3.80;;;12.80;99.90;12.70;100855.00;;;;4988527;28;119432;-66
2023/09/09 04:18:13;;;;;;;3.63;3.33;;;12.70;99.90;12.70;100858.00;;;;4991023;27;118259;-66
2023/09/09 04:20:39;;;;;;;3.80;3.37;;;12.70;99.90;12.70;100865.00;;;;4993710;28;88524;-66
2023/09/09 04:23:06;;;;;;;4.13;2.47;;;12.70;99.90;12.70;100854.00;;;;4993125;28;108339;-67
2023/09/09 04:25:31;;;;;;;4.20;2.97;;;12.70;99.90;12.60;100859.00;;;;4992178;27;115896;-67
2023/09/09 04:27:57;;;;;;;5.40;3.47;;;12.70;99.90;12.60;100856.00;;;;4991645;27;108822;-66
2023/09/09 04:30:23;;;;;;;4.53;3.17;;;12.70;99.90;12.60;100864.00;;;;4993059;27;110675;-66
2023/09/09 04:32:48;;;;;;;3.03;2.40;;;12.60;99.90;12.60;100859.00;;;;4995407;27;107356;-67
2023/09/09 04:35:14;;;;;;;4.53;3.23;;;12.60;99.90;12.60;100847.00;;;;4994076;27;112894;-67
2023/09/09 04:37:40;;;;;;;3.67;2.90;;;12.60;99.90;12.50;100853.00;;;;4992537;28;116822;-67
2023/09/09 04:40:10;;;;;;;4.07;3.30;;;12.50;99.90;12.50;100855.00;;;;4990379;27;90337;-66
2023/09/09 04:42:35;;;;;;;4.77;3.20;;;12.50;99.90;12.50;100864.00;;;;4995253;27;87556;-66
2023/09/09 04:45:03;;;;;;;3.57;3.20;;;12.50;99.90;12.50;100853.00;;;;5015868;28;116245;-67
2023/09/09 04:47:29;;;;;;;5.00;3.03;;;12.40;99.90;12.40;100860.00;;;;5005091;28;89565;-66
2023/09/09 04:49:57;;;;;;;5.97;3.40;;;12.50;99.90;12.40;100857.00;;;;4991785;28;87921;-67
2023/09/09 04:52:23;;;;;;;4.57;3.27;;;12.40;99.90;12.40;100863.00;;;;4991727;28;102020;-67
2023/09/09 04:54:49;;;;;;;3.77;3.03;;;12.40;99.90;12.40;100858.00;;;;5003135;27;116823;-67
2023/09/09 04:57:15;;;;;;;4.17;2.93;;;12.40;99.90;12.40;100862.00;;;;5003071;28;87796;-67
2023/09/09 04:59:42;;;;;;;3.57;3.27;;;12.40;99.90;12.40;100871.00;;;;4990527;28;88242;-67
2023/09/09 05:02:07;;;;;;;4.60;2.77;;;12.40;99.90;12.50;100867.00;;;;4983250;28;99453;-67
2023/09/09 05:04:33;;;;;;;4.60;3.40;;;12.40;99.90;12.60;100874.00;;;;4988548;27;117844;-67
2023/09/09 05:07:00;;;;;;;4.30;3.33;;;12.50;99.90;12.60;100876.00;;;;4989530;27;88109;-67
2023/09/09 05:09:27;;;;;;;9.77;3.47;;;12.60;99.90;12.70;100872.00;;;;4988518;27;95144;-66
2023/09/09 05:11:52;;;;;;;6.40;4.20;;;12.70;99.90;12.80;100873.00;;;;4993659;27;88382;-67
2023/09/09 05:14:18;;;;;;;3.57;3.20;;;12.70;99.90;12.90;100868.00;;;;4970101;28;116415;-66
2023/09/09 05:16:44;;;;;;;3.17;2.87;;;12.80;99.90;13.00;100872.00;;;;4991510;27;117670;-67
2023/09/09 05:19:09;;;;;;;4.50;3.63;;;12.90;99.90;13.10;100883.00;;;;4991430;27;109518;-66
2023/09/09 05:21:35;;;;;;;4.07;3.17;;;13.00;99.90;13.30;100881.00;;;;4991266;27;109270;-66
2023/09/09 05:24:01;;;;;;;3.97;3.23;;;13.20;99.90;13.40;100882.00;;;;4992092;27;88629;-65
2023/09/09 05:26:27;;;;;;;4.50;3.60;;;13.30;99.90;13.60;100883.00;;;;4994442;27;117464;-66
2023/09/09 05:28:53;;;;;;;3.97;2.77;;;13.50;99.90;13.80;100879.00;;;;4991401;27;88895;-67
2023/09/09 05:31:19;;;;;;;4.17;3.17;;;13.70;99.90;14.00;100885.00;;;;4990313;27;109025;-66
2023/09/09 05:33:45;;;;;;;5.40;3.57;;;13.80;99.90;14.20;100886.00;;;;4972438;27;117519;-65
2023/09/09 05:36:10;;;;;;;3.90;2.90;;;14.00;99.90;14.40;100891.00;;;;4991704;27;117947;-66
2023/09/09 05:38:36;;;;;;;3.93;3.20;;;14.20;99.90;14.60;100897.00;;;;4989313;28;110855;-66
2023/09/09 05:41:03;;;;;;;3.13;2.73;;;14.40;99.90;14.80;100907.00;;;;4992540;28;87799;-66
2023/09/09 05:43:28;;;;;;;3.92;3.13;;;14.60;99.90;15.00;100902.00;;;;4989104;28;107867;-68
2023/09/09 05:45:59;;;;;;;3.95;2.85;;;14.90;99.90;15.20;100908.00;;;;4990125;28;116425;-66
2023/09/09 05:48:26;;;;;;;4.95;3.30;;;15.10;99.90;15.40;100903.00;;;;4993368;27;87721;-67
2023/09/09 05:50:51;;;;;;;4.22;2.70;;;15.20;99.90;15.70;100904.00;;;;4992417;27;87747;-65
2023/09/09 05:53:17;;;;;;;3.60;3.20;;;15.50;99.90;15.90;100908.00;;;;4992107;28;118641;-66
2023/09/09 05:55:43;;;;;;;3.47;3.17;;;15.70;99.90;16.20;100906.00;;;;4991308;28;89377;-66
2023/09/09 05:58:08;;;;;;;3.95;2.92;;;16.00;99.90;16.50;100907.00;;;;4992110;27;109466;-66
2023/09/09 06:00:34;;;;;;;5.50;2.92;;;16.20;99.90;16.70;100907.00;;;;4997435;28;88050;-65
2023/09/09 06:03:00;;;;;;;4.55;3.33;;;16.50;99.90;16.90;100901.00;;;;4995313;28;118935;-66
2023/09/09 06:05:25;;;;;;;4.93;3.67;;;16.70;99.90;17.20;100909.00;;;;4996272;27;116677;-65
2023/09/09 06:07:57;;;;;;;3.42;3.13;;;16.90;99.90;17.40;100908.00;;;;4972137;27;110041;-67
2023/09/09 06:10:23;;;;;;;4.38;2.70;;;17.20;99.90;17.60;100907.00;;;;4973213;27;106571;-65
2023/09/09 06:12:49;;;;;;;3.42;3.13;;;17.40;99.90;17.90;100917.00;;;;4991788;27;117557;-66
2023/09/09 06:15:15;;;;;;;5.13;2.95;;;17.70;99.90;18.10;100909.00;;;;4989559;27;117688;-66
2023/09/09 06:17:41;;;;;;;3.30;2.33;;;17.90;99.90;18.40;100907.00;;;;4991179;27;97100;-67
2023/09/09 06:20:08;;;;;;;4.38;3.25;;;18.10;99.90;18.60;100913.00;;;;4999225;27;87942;-66
2023/09/09 06:22:34;;;;;;;3.63;3.03;;;18.40;99.90;18.90;100919.00;;;;4992684;27;102169;-67
2023/09/09 06:25:01;;;;;;;4.47;2.80;;;18.60;99.90;19.20;100907.00;;;;4973635;28;88754;-66
2023/09/09 06:27:26;;;;;;;3.58;2.72;;;18.90;99.90;19.50;100911.00;;;;4972972;28;87711;-66
2023/09/09 06:29:52;;;;;;;5.68;3.45;;;19.20;99.90;19.80;100914.00;;;;4971242;28;87886;-67
2023/09/09 06:32:18;;;;;;;5.80;3.03;;;19.50;99.90;20.10;100917.00;;;;4968592;28;116290;-67
2023/09/09 06:34:43;;;;;;;18.20;2.55;;;19.80;99.90;20.40;100914.00;;;;4969244;28;116919;-66
2023/09/09 06:37:10;;;;;;;2.90;2.30;;;20.10;99.90;20.70;100914.00;;;;4970754;28;110984;-67
2023/09/09 06:39:36;;;;;;;4.13;2.42;;;20.40;99.90;21.10;100928.00;;;;4973009;28;87690;-65
2023/09/09 06:42:02;;;;;;;2.47;2.28;;;20.70;99.90;21.40;100932.00;;;;4970308;28;89373;-65
2023/09/09 06:44:28;;;;;;;3.63;2.75;;;21.10;99.90;21.80;100927.00;;;;4969666;28;108398;-67
2023/09/09 06:46:53;;;;;;;4.63;2.65;;;21.50;99.90;22.20;100930.00;;;;4974867;28;89663;-67
2023/09/09 06:49:19;;;;;;;5.32;2.85;;;21.80;99.90;22.50;100922.00;;;;4972478;28;107687;-67
2023/09/09 06:51:45;;;;;;;3.95;2.63;;;22.20;99.90;22.80;100919.00;;;;4971099;28;118011;-67
2023/09/09 06:54:11;;;;;;;3.58;3.28;;;22.50;99.90;23.10;100931.00;;;;4968678;28;88573;-66
2023/09/09 06:56:36;;;;;;;3.83;2.60;;;22.80;99.90;23.40;100940.00;;;;4969228;28;110484;-68
2023/09/09 06:59:03;;;;;;;2.90;2.38;;;23.20;99.20;23.70;100930.00;;;;4967209;28;108679;-66
2023/09/09 07:01:29;;;;;;;2.90;2.67;;;23.40;98.10;23.90;100939.00;;;;4969687;28;88949;-67
2023/09/09 07:03:55;;;;;;;3.17;2.53;;;23.60;97.10;24.10;100935.00;;;;4970450;28;109861;-67
2023/09/09 07:06:20;;;;;;;2.95;2.42;;;23.80;96.50;24.30;100933.00;;;;4970604;28;110450;-66
2023/09/09 07:08:47;;;;;;;4.40;2.47;;;24.10;95.90;24.60;100938.00;;;;4969290;28;109064;-66
2023/09/09 07:11:13;;;;;;;2.17;1.98;;;24.40;95.20;24.90;100946.00;;;;4969650;28;88759;-67
2023/09/09 07:13:39;;;;;;;2.20;1.80;;;24.60;94.20;25.20;100938.00;;;;4969433;28;106515;-66
2023/09/09 07:16:04;;;;;;;2.85;2.30;;;24.90;93.60;25.40;100943.00;;;;4970968;28;110021;-67
2023/09/09 07:18:36;;;;;;;2.10;1.83;;;25.10;92.50;25.50;100942.00;;;;4967808;28;107579;-67
2023/09/09 07:21:02;;;;;;;2.35;1.98;;;25.30;91.30;25.60;100948.00;;;;4969314;28;88774;-67
2023/09/09 07:23:28;;;;;;;2.03;1.83;;;25.40;90.40;25.70;100945.00;;;;4978509;28;87139;-67
2023/09/09 07:25:54;;;;;;;2.28;1.85;;;25.50;88.90;25.80;100942.00;;;;4985467;28;110095;-66
2023/09/09 07:28:19;;;;;;;1.55;1.35;;;25.60;88.60;26.10;100943.00;;;;4989641;27;88454;-67
2023/09/09 07:30:45;;;;;;;2.60;2.38;;;25.80;87.90;26.30;100953.00;;;;4990574;27;89568;-67
2023/09/09 07:33:11;;;;;;;2.80;1.98;;;26.10;86.30;26.50;100934.00;;;;4986459;27;89361;-67
2023/09/09 07:35:37;;;;;;;3.40;2.78;;;26.20;85.10;26.80;100939.00;;;;4992094;27;108422;-67
2023/09/09 07:38:06;;;;;;;3.67;2.33;;;26.50;84.20;27.00;100941.00;;;;4988989;27;88177;-67
2023/09/09 07:40:32;;;;;;;1.77;1.55;;;26.70;81.60;27.10;100941.00;;;;4990719;27;88154;-67
2023/09/09 07:42:58;;;;;;;3.35;2.85;;;26.80;80.60;27.30;100938.00;;;;4988079;27;118965;-68
2023/09/09 07:45:24;;;;;;;3.58;2.53;;;27.00;79.10;27.50;100939.00;;;;4989492;27;87854;-66
2023/09/09 07:47:50;;;;;;;1.73;1.60;;;27.20;76.00;27.60;100950.00;;;;4987305;28;109681;-66
2023/09/09 07:50:16;;;;;;;4.15;2.30;;;27.30;75.30;27.60;100937.00;;;;4989202;28;116918;-67
2023/09/09 07:52:41;;;;;;;2.30;2.05;;;27.40;73.20;27.70;100934.00;;;;4987615;27;117436;-68
2023/09/09 07:55:08;;;;;;;3.10;1.40;;;27.50;73.00;27.90;100933.00;;;;4987207;27;91215;-67
2023/09/09 07:57:33;;;;;;;2.33;1.73;;;27.60;72.10;28.00;100938.00;;;;4985899;27;100184;-66
2023/09/09 08:00:01;;;;;;;2.97;1.90;;;27.70;69.80;27.90;100935.00;;;;4988718;28;89329;-68
2023/09/09 08:02:27;;;;;;;4.05;2.17;;;27.70;66.50;27.80;100942.00;;;;4971744;28;88751;-66
2023/09/09 08:04:52;;;;;;;1.55;1.27;;;27.70;66.20;27.80;100944.00;;;;4991553;27;88287;-67
2023/09/09 08:07:18;;;;;;;1.70;1.60;;;27.60;67.50;27.90;100935.00;;;;4991177;27;89314;-67
2023/09/09 08:09:44;;;;;;;2.88;1.65;;;27.70;65.70;28.00;100939.00;;;;4992606;27;117143;-67
2023/09/09 08:12:10;;;;;;;2.92;1.60;;;27.70;66.00;28.20;100937.00;;;;4988403;27;88550;-67
2023/09/09 08:14:35;;;;;;;1.55;1.23;;;27.90;62.00;28.20;100923.00;;;;4989858;27;100267;-68
2023/09/09 08:17:01;;;;;;;2.42;1.50;;;27.90;62.30;28.30;100926.00;;;;4987451;27;106137;-67
2023/09/09 08:19:27;;;;;;;1.77;1.35;;;28.00;61.80;28.40;100927.00;;;;4992255;27;119903;-66
2023/09/09 08:21:52;;;;;;;2.45;1.52;;;28.10;60.50;28.50;100924.00;;;;4989774;28;108956;-67
2023/09/09 08:24:18;;;;;;;1.88;1.67;;;28.20;58.80;28.50;100925.00;;;;4987914;28;110009;-67
2023/09/09 08:26:44;;;;;;;2.75;2.03;;;28.20;58.30;28.50;100929.00;;;;4987396;28;89663;-66
2023/09/09 08:29:09;;;;;;;2.10;1.55;;;28.20;56.60;28.40;100922.00;;;;4984107;28;116076;-66
2023/09/09 08:31:35;;;;;;;3.53;1.55;;;28.20;57.10;28.40;100923.00;;;;4986733;27;116637;-66
2023/09/09 08:34:01;;;;;;;2.83;1.52;;;28.20;57.00;28.50;100924.00;;;;4988203;28;110945;-66
2023/09/09 08:36:27;;;;;;;1.75;1.17;;;28.20;56.70;28.60;100925.00;;;;4989263;28;109182;-65
2023/09/09 08:38:56;;;;;;;2.20;1.58;;;28.30;55.20;28.50;100913.00;;;;4985505;28;117357;-66
2023/09/09 08:41:30;;;;;;;2.83;1.75;;;28.30;55.40;28.50;100918.00;;;;4987188;28;88296;-66
2023/09/09 08:44:35;;;;;;;2.47;2.22;;;28.30;55.40;28.60;100920.00;;;;4969448;28;88922;-67
2023/09/09 08:47:01;;;;;;;4.40;1.95;;;28.30;54.90;28.60;100918.00;;;;4985708;28;101755;-68
2023/09/09 08:49:30;;;;;;;2.05;1.63;;;28.30;54.80;28.80;100916.00;;;;4985964;27;120377;-68
2023/09/09 08:52:12;;;;;;;2.17;1.70;;;28.40;54.70;28.90;100919.00;;;;4962297;28;87769;-69
2023/09/09 08:54:39;;;;;;;2.63;1.67;;;28.50;54.70;29.10;100920.00;;;;4972760;28;93139;-70
2023/09/09 08:57:05;;;;;;;2.30;1.63;;;28.70;54.60;29.30;100913.00;;;;4990036;28;108468;-70
2023/09/09 08:59:33;;;;;;;2.75;1.88;;;28.90;53.70;29.40;100914.00;;;;4969044;28;117801;-68
2023/09/09 09:01:59;;;;;;;1.45;1.35;;;29.00;53.90;29.50;100921.00;;;;4993021;27;88589;-67
2023/09/09 09:04:27;;;;;;;2.25;1.63;;;29.10;53.50;29.60;100920.00;;;;4989635;28;88601;-69
2023/09/09 09:06:54;;;;;;;1.75;1.60;;;29.20;53.40;29.80;100918.00;;;;4991758;27;98793;-68
2023/09/09 09:09:20;;;;;;;3.22;1.92;;;29.40;53.40;30.00;100919.00;;;;4990136;27;89272;-68
2023/09/09 09:11:45;;;;;;;2.00;1.80;;;29.30;51.50;30.00;100909.00;;;;4987404;28;89395;-68
2023/09/09 09:14:11;;;;;;;2.85;1.65;;;29.30;50.90;30.00;100912.00;;;;4988814;28;111130;-69
2023/09/09 09:16:42;;;;;;;1.80;1.58;;;29.60;50.90;30.10;100911.00;;;;4991968;28;95732;-71
2023/09/09 09:19:21;;;;;;;3.45;1.38;;;29.70;51.10;30.20;100915.00;;;;4993363;28;90852;-69
2023/09/09 09:21:47;;;;;;;1.88;1.17;;;29.80;50.30;30.20;100917.00;;;;4990592;27;88764;-69
2023/09/09 09:24:13;;;;;;;1.88;1.55;;;29.90;49.10;30.10;100915.00;;;;4991541;28;88129;-69
2023/09/09 09:26:39;;;;;;;1.70;1.60;;;29.80;49.80;30.10;100913.00;;;;4991538;27;87457;-69
2023/09/09 09:29:05;;;;;;;1.80;1.55;;;29.80;49.10;30.20;100912.00;;;;4966078;28;116436;-70
2023/09/09 09:31:31;;;;;;;1.63;1.50;;;29.80;49.40;30.20;100915.00;;;;4988669;27;88300;-69
2023/09/09 09:33:58;;;;;;;2.28;1.50;;;29.80;48.90;30.20;100905.00;;;;4988763;27;88931;-70
2023/09/09 09:36:25;;;;;;;3.10;1.80;;;29.80;49.60;30.40;100901.00;;;;4988876;28;88369;-68
2023/09/09 09:38:52;;;;;;;3.53;1.70;;;29.90;49.10;30.50;100914.00;;;;4993238;27;87987;-69
2023/09/09 09:41:19;;;;;;;2.97;1.67;;;30.00;48.70;30.50;100906.00;;;;4993766;28;87798;-69
2023/09/09 09:43:50;;;;;;;2.08;1.23;;;30.10;48.20;30.50;100905.00;;;;4993539;28;87923;-68
2023/09/09 09:46:21;;;;;;;2.40;1.55;;;29.60;48.30;30.60;100914.00;;;;4988707;28;87854;-68
2023/09/09 09:48:47;;;;;;;2.08;1.38;;;30.10;48.60;30.70;100915.00;;;;4977731;27;87869;-67
2023/09/09 09:51:14;;;;;;;3.83;1.50;;;30.20;48.10;30.70;100901.00;;;;4973062;28;88357;-68
2023/09/09 09:53:48;;;;;;;1.65;1.42;;;30.20;47.90;30.80;100904.00;;;;4993017;27;89943;-69
2023/09/09 09:56:18;;;;;;;1.98;1.55;;;30.30;48.10;31.00;100899.00;;;;4990663;27;109924;-69
2023/09/09 09:58:46;;;;;;;3.00;1.75;;;30.40;48.30;31.10;100898.00;;;;4986978;27;90001;-70
2023/09/09 10:01:12;;;;;;;2.30;1.00;;;30.60;47.30;31.30;100905.00;;;;4983405;27;107337;-69
2023/09/09 10:03:55;;;;;;;2.55;1.30;;;30.70;46.60;31.40;100905.00;;;;4988750;27;107289;-68
2023/09/09 10:06:29;;;;;;;2.35;1.80;;;30.80;46.20;31.50;100898.00;;;;4936451;28;88129;-68
2023/09/09 10:09:13;;;;;;;1.85;1.25;;;30.90;46.00;31.60;100904.00;;;;4970930;28;119029;-70
2023/09/09 10:11:54;;;;;;;3.17;2.05;;;31.00;46.10;31.60;100912.00;;;;4985472;27;107560;-68
2023/09/09 10:14:24;;;;;;;1.17;1.00;;;31.00;45.20;31.50;100906.00;;;;4968607;28;100199;-70
2023/09/09 10:16:53;;;;;;;2.47;1.75;;;31.00;45.10;31.60;100905.00;;;;4987435;27;102450;-68
2023/09/09 10:19:19;;;;;;;2.20;1.23;;;31.00;45.00;31.80;100905.00;;;;4987337;27;89280;-69
2023/09/09 10:21:47;;;;;;;2.70;1.60;;;31.20;44.90;32.00;100906.00;;;;4966949;27;89869;-69
2023/09/09 10:24:16;;;;;;;1.98;1.65;;;31.40;44.60;32.00;100909.00;;;;4988103;27;90278;-70
2023/09/09 10:26:42;;;;;;;1.60;1.35;;;31.50;43.60;32.00;100902.00;;;;4984763;27;88087;-69
2023/09/09 10:29:09;;;;;;;3.47;1.83;;;31.50;44.00;32.10;100904.00;;;;4950484;28;117498;-68
2023/09/09 10:31:36;;;;;;;1.67;1.35;;;31.60;43.20;32.30;100887.00;;;;4985284;27;88588;-70
2023/09/09 10:34:03;;;;;;;1.20;1.05;;;31.60;43.30;32.40;100896.00;;;;4987689;27;87940;-71
2023/09/09 10:36:36;;;;;;;2.38;1.58;;;31.80;43.70;32.40;100895.00;;;;4967394;27;88829;-69
2023/09/09 10:39:03;;;;;;;1.15;1.02;;;31.90;43.10;32.30;100893.00;;;;4969116;27;87804;-70
2023/09/09 10:41:32;;;;;;;1.23;1.10;;;31.90;43.20;32.40;100889.00;;;;4985182;27;89298;-71